sensor_id;sensor_type;location;lat;lon;timestamp;temperature;humidity
4354;DHT22;11018;51.258;6.806;2024-01-30T00:01:13;9.50;57.20
4354;DHT22;11018;51.258;6.806;2024-01-30T00:03:39;9.50;57.70
4354;DHT22;11018;51.258;6.806;2024-01-30T00:06:04;9.50;57.40
4354;DHT22;11018;51.258;6.806;2024-01-30T00:08:30;9.50;57.50
4354;DHT22;11018;51.258;6.806;2024-01-30T00:10:55;9.50;57.10
4354;DHT22;11018;51.258;6.806;2024-01-30T00:13:21;9.50;57.10
4354;DHT22;11018;51.258;6.806;2024-01-30T00:15:46;9.40;57.20
4354;DHT22;11018;51.258;6.806;2024-01-30T00:18:12;9.40;57.00
4354;DHT22;11018;51.258;6.806;2024-01-30T00:20:38;9.50;56.80
4354;DHT22;11018;51.258;6.806;2024-01-30T00:23:03;9.50;56.50
4354;DHT22;11018;51.258;6.806;2024-01-30T00:25:30;9.50;56.60
4354;DHT22;11018;51.258;6.806;2024-01-30T00:27:55;9.40;56.90
4354;DHT22;11018;51.258;6.806;2024-01-30T00:30:21;9.40;56.80
4354;DHT22;11018;51.258;6.806;2024-01-30T00:32:46;9.40;56.80
4354;DHT22;11018;51.258;6.806;2024-01-30T00:35:12;9.40;57.10
4354;DHT22;11018;51.258;6.806;2024-01-30T00:37:37;9.30;57.50
4354;DHT22;11018;51.258;6.806;2024-01-30T00:40:03;9.30;57.30
4354;DHT22;11018;51.258;6.806;2024-01-30T00:42:29;9.30;57.10
4354;DHT22;11018;51.258;6.806;2024-01-30T00:44:55;9.30;57.30
4354;DHT22;11018;51.258;6.806;2024-01-30T00:47:20;9.30;57.40
4354;DHT22;11018;51.258;6.806;2024-01-30T00:49:46;9.30;57.30
4354;DHT22;11018;51.258;6.806;2024-01-30T00:52:11;9.30;56.80
4354;DHT22;11018;51.258;6.806;2024-01-30T00:54:37;9.20;57.20
4354;DHT22;11018;51.258;6.806;2024-01-30T00:57:03;9.20;57.40
4354;DHT22;11018;51.258;6.806;2024-01-30T00:59:29;9.10;57.90
4354;DHT22;11018;51.258;6.806;2024-01-30T01:01:54;9.10;58.50
4354;DHT22;11018;51.258;6.806;2024-01-30T01:04:20;9.00;58.80
4354;DHT22;11018;51.258;6.806;2024-01-30T01:06:47;9.00;59.00
4354;DHT22;11018;51.258;6.806;2024-01-30T01:09:12;9.00;58.90
4354;DHT22;11018;51.258;6.806;2024-01-30T01:11:38;9.10;58.40
4354;DHT22;11018;51.258;6.806;2024-01-30T01:14:04;9.10;58.70
4354;DHT22;11018;51.258;6.806;2024-01-30T01:16:30;8.90;58.90
4354;DHT22;11018;51.258;6.806;2024-01-30T01:18:56;9.00;58.80
4354;DHT22;11018;51.258;6.806;2024-01-30T01:21:21;9.10;58.20
4354;DHT22;11018;51.258;6.806;2024-01-30T01:23:47;9.00;58.20
4354;DHT22;11018;51.258;6.806;2024-01-30T01:26:13;8.90;59.10
4354;DHT22;11018;51.258;6.806;2024-01-30T01:28:41;8.90;59.30
4354;DHT22;11018;51.258;6.806;2024-01-30T01:31:07;8.90;59.70
4354;DHT22;11018;51.258;6.806;2024-01-30T01:33:33;8.90;59.40
4354;DHT22;11018;51.258;6.806;2024-01-30T01:35:59;8.90;59.70
4354;DHT22;11018;51.258;6.806;2024-01-30T01:38:25;8.90;59.80
4354;DHT22;11018;51.258;6.806;2024-01-30T01:40:51;8.80;60.00
4354;DHT22;11018;51.258;6.806;2024-01-30T01:43:16;8.70;60.60
4354;DHT22;11018;51.258;6.806;2024-01-30T01:45:42;8.70;61.20
4354;DHT22;11018;51.258;6.806;2024-01-30T01:48:08;8.70;60.80
4354;DHT22;11018;51.258;6.806;2024-01-30T01:50:35;8.80;60.30
4354;DHT22;11018;51.258;6.806;2024-01-30T01:53:01;8.90;60.20
4354;DHT22;11018;51.258;6.806;2024-01-30T01:55:29;8.80;60.40
4354;DHT22;11018;51.258;6.806;2024-01-30T01:57:56;8.70;61.40
4354;DHT22;11018;51.258;6.806;2024-01-30T02:00:22;8.80;60.70
4354;DHT22;11018;51.258;6.806;2024-01-30T02:02:49;8.80;60.40
4354;DHT22;11018;51.258;6.806;2024-01-30T02:05:15;8.80;60.40
4354;DHT22;11018;51.258;6.806;2024-01-30T02:07:42;8.80;60.60
4354;DHT22;11018;51.258;6.806;2024-01-30T02:10:09;8.80;60.50
4354;DHT22;11018;51.258;6.806;2024-01-30T02:12:37;8.90;59.80
4354;DHT22;11018;51.258;6.806;2024-01-30T02:15:04;8.80;60.10
4354;DHT22;11018;51.258;6.806;2024-01-30T02:17:30;8.80;59.90
4354;DHT22;11018;51.258;6.806;2024-01-30T02:19:56;8.80;59.90
4354;DHT22;11018;51.258;6.806;2024-01-30T02:22:22;8.80;60.50
4354;DHT22;11018;51.258;6.806;2024-01-30T02:24:47;8.70;60.40
4354;DHT22;11018;51.258;6.806;2024-01-30T02:27:13;8.70;60.20
4354;DHT22;11018;51.258;6.806;2024-01-30T02:29:39;8.70;61.00
4354;DHT22;11018;51.258;6.806;2024-01-30T02:32:04;8.80;60.10
4354;DHT22;11018;51.258;6.806;2024-01-30T02:34:31;8.80;60.00
4354;DHT22;11018;51.258;6.806;2024-01-30T02:36:56;8.80;60.00
4354;DHT22;11018;51.258;6.806;2024-01-30T02:39:22;8.80;60.40
4354;DHT22;11018;51.258;6.806;2024-01-30T02:41:48;8.90;59.80
4354;DHT22;11018;51.258;6.806;2024-01-30T02:44:13;8.80;60.50
4354;DHT22;11018;51.258;6.806;2024-01-30T02:46:39;8.70;60.30
4354;DHT22;11018;51.258;6.806;2024-01-30T02:49:04;8.70;60.50
4354;DHT22;11018;51.258;6.806;2024-01-30T02:51:30;8.70;60.80
4354;DHT22;11018;51.258;6.806;2024-01-30T02:53:55;8.90;60.50
4354;DHT22;11018;51.258;6.806;2024-01-30T02:56:21;9.00;58.90
4354;DHT22;11018;51.258;6.806;2024-01-30T02:58:47;9.00;58.50
4354;DHT22;11018;51.258;6.806;2024-01-30T03:01:12;8.90;59.40
4354;DHT22;11018;51.258;6.806;2024-01-30T03:03:38;8.90;59.20
4354;DHT22;11018;51.258;6.806;2024-01-30T03:06:05;8.90;59.10
4354;DHT22;11018;51.258;6.806;2024-01-30T03:08:30;8.90;59.00
4354;DHT22;11018;51.258;6.806;2024-01-30T03:10:56;8.90;59.40
4354;DHT22;11018;51.258;6.806;2024-01-30T03:13:22;8.90;59.20
4354;DHT22;11018;51.258;6.806;2024-01-30T03:15:49;8.90;59.00
4354;DHT22;11018;51.258;6.806;2024-01-30T03:18:14;8.90;59.10
4354;DHT22;11018;51.258;6.806;2024-01-30T03:20:40;9.00;59.20
4354;DHT22;11018;51.258;6.806;2024-01-30T03:23:05;8.90;59.30
4354;DHT22;11018;51.258;6.806;2024-01-30T03:25:31;8.90;59.50
4354;DHT22;11018;51.258;6.806;2024-01-30T03:27:56;8.90;59.50
4354;DHT22;11018;51.258;6.806;2024-01-30T03:30:22;8.90;58.70
4354;DHT22;11018;51.258;6.806;2024-01-30T03:32:47;8.90;59.00
4354;DHT22;11018;51.258;6.806;2024-01-30T03:35:13;8.90;59.30
4354;DHT22;11018;51.258;6.806;2024-01-30T03:37:39;9.00;58.60
4354;DHT22;11018;51.258;6.806;2024-01-30T03:40:05;9.10;58.20
4354;DHT22;11018;51.258;6.806;2024-01-30T03:42:30;9.00;58.30
4354;DHT22;11018;51.258;6.806;2024-01-30T03:44:59;9.00;57.80
4354;DHT22;11018;51.258;6.806;2024-01-30T03:47:24;9.10;57.70
4354;DHT22;11018;51.258;6.806;2024-01-30T03:49:50;9.00;58.00
4354;DHT22;11018;51.258;6.806;2024-01-30T03:52:15;8.90;58.60
4354;DHT22;11018;51.258;6.806;2024-01-30T03:54:41;8.90;59.00
4354;DHT22;11018;51.258;6.806;2024-01-30T03:57:06;8.90;59.50
4354;DHT22;11018;51.258;6.806;2024-01-30T03:59:32;9.00;58.40
4354;DHT22;11018;51.258;6.806;2024-01-30T04:01:57;8.90;58.90
4354;DHT22;11018;51.258;6.806;2024-01-30T04:04:23;8.90;58.90
4354;DHT22;11018;51.258;6.806;2024-01-30T04:06:48;8.90;58.70
4354;DHT22;11018;51.258;6.806;2024-01-30T04:09:14;8.80;59.70
4354;DHT22;11018;51.258;6.806;2024-01-30T04:11:40;8.80;59.50
4354;DHT22;11018;51.258;6.806;2024-01-30T04:14:06;8.90;59.10
4354;DHT22;11018;51.258;6.806;2024-01-30T04:16:31;8.80;59.20
4354;DHT22;11018;51.258;6.806;2024-01-30T04:18:57;8.80;59.50
4354;DHT22;11018;51.258;6.806;2024-01-30T04:21:23;8.80;59.70
4354;DHT22;11018;51.258;6.806;2024-01-30T04:23:50;8.80;60.00
4354;DHT22;11018;51.258;6.806;2024-01-30T04:26:16;8.80;60.00
4354;DHT22;11018;51.258;6.806;2024-01-30T04:28:42;8.70;60.40
4354;DHT22;11018;51.258;6.806;2024-01-30T04:31:07;8.80;59.90
4354;DHT22;11018;51.258;6.806;2024-01-30T04:33:33;8.70;60.60
4354;DHT22;11018;51.258;6.806;2024-01-30T04:35:59;8.80;60.00
4354;DHT22;11018;51.258;6.806;2024-01-30T04:38:24;8.80;60.10
4354;DHT22;11018;51.258;6.806;2024-01-30T04:40:50;8.80;59.90
4354;DHT22;11018;51.258;6.806;2024-01-30T04:43:15;8.80;59.70
4354;DHT22;11018;51.258;6.806;2024-01-30T04:45:41;8.80;59.90
4354;DHT22;11018;51.258;6.806;2024-01-30T04:48:07;8.80;59.50
4354;DHT22;11018;51.258;6.806;2024-01-30T04:50:33;8.90;58.90
4354;DHT22;11018;51.258;6.806;2024-01-30T04:52:58;8.80;59.20
4354;DHT22;11018;51.258;6.806;2024-01-30T04:55:24;8.70;59.90
4354;DHT22;11018;51.258;6.806;2024-01-30T04:57:49;8.70;60.60
4354;DHT22;11018;51.258;6.806;2024-01-30T05:00:15;8.70;60.50
4354;DHT22;11018;51.258;6.806;2024-01-30T05:02:41;8.70;60.40
4354;DHT22;11018;51.258;6.806;2024-01-30T05:05:07;8.80;60.50
4354;DHT22;11018;51.258;6.806;2024-01-30T05:07:33;8.80;59.90
4354;DHT22;11018;51.258;6.806;2024-01-30T05:09:58;8.80;60.10
4354;DHT22;11018;51.258;6.806;2024-01-30T05:12:24;8.80;59.40
4354;DHT22;11018;51.258;6.806;2024-01-30T05:14:49;8.80;60.00
4354;DHT22;11018;51.258;6.806;2024-01-30T05:17:15;8.90;59.50
4354;DHT22;11018;51.258;6.806;2024-01-30T05:19:41;8.80;59.90
4354;DHT22;11018;51.258;6.806;2024-01-30T05:22:06;8.80;60.20
4354;DHT22;11018;51.258;6.806;2024-01-30T05:24:33;8.70;60.00
4354;DHT22;11018;51.258;6.806;2024-01-30T05:26:58;8.70;60.70
4354;DHT22;11018;51.258;6.806;2024-01-30T05:29:24;8.70;61.20
4354;DHT22;11018;51.258;6.806;2024-01-30T05:31:49;8.70;60.80
4354;DHT22;11018;51.258;6.806;2024-01-30T05:34:15;8.70;60.40
4354;DHT22;11018;51.258;6.806;2024-01-30T05:36:41;8.70;60.40
4354;DHT22;11018;51.258;6.806;2024-01-30T05:39:06;8.60;61.00
4354;DHT22;11018;51.258;6.806;2024-01-30T05:41:32;8.60;61.30
4354;DHT22;11018;51.258;6.806;2024-01-30T05:43:58;8.50;62.20
4354;DHT22;11018;51.258;6.806;2024-01-30T05:46:23;8.50;62.40
4354;DHT22;11018;51.258;6.806;2024-01-30T05:48:49;8.50;63.00
4354;DHT22;11018;51.258;6.806;2024-01-30T05:51:15;8.50;62.90
4354;DHT22;11018;51.258;6.806;2024-01-30T05:53:40;8.50;63.10
4354;DHT22;11018;51.258;6.806;2024-01-30T05:56:06;8.40;63.10
4354;DHT22;11018;51.258;6.806;2024-01-30T05:58:32;8.40;64.10
4354;DHT22;11018;51.258;6.806;2024-01-30T06:00:57;8.30;64.50
4354;DHT22;11018;51.258;6.806;2024-01-30T06:03:23;8.40;64.70
4354;DHT22;11018;51.258;6.806;2024-01-30T06:05:49;8.40;65.10
4354;DHT22;11018;51.258;6.806;2024-01-30T06:08:14;8.40;64.60
4354;DHT22;11018;51.258;6.806;2024-01-30T06:10:40;8.40;64.40
4354;DHT22;11018;51.258;6.806;2024-01-30T06:13:06;8.40;64.40
4354;DHT22;11018;51.258;6.806;2024-01-30T06:15:31;8.50;63.80
4354;DHT22;11018;51.258;6.806;2024-01-30T06:17:58;8.60;62.90
4354;DHT22;11018;51.258;6.806;2024-01-30T06:20:24;8.60;62.20
4354;DHT22;11018;51.258;6.806;2024-01-30T06:22:50;8.60;63.00
4354;DHT22;11018;51.258;6.806;2024-01-30T06:25:15;8.60;62.30
4354;DHT22;11018;51.258;6.806;2024-01-30T06:27:42;8.70;62.10
4354;DHT22;11018;51.258;6.806;2024-01-30T06:30:08;8.60;62.70
4354;DHT22;11018;51.258;6.806;2024-01-30T06:32:35;8.70;60.90
4354;DHT22;11018;51.258;6.806;2024-01-30T06:35:01;8.70;61.60
4354;DHT22;11018;51.258;6.806;2024-01-30T06:37:27;8.70;61.60
4354;DHT22;11018;51.258;6.806;2024-01-30T06:39:52;8.70;61.00
4354;DHT22;11018;51.258;6.806;2024-01-30T06:42:18;8.80;60.80
4354;DHT22;11018;51.258;6.806;2024-01-30T06:44:44;8.80;61.20
4354;DHT22;11018;51.258;6.806;2024-01-30T06:47:10;8.70;61.30
4354;DHT22;11018;51.258;6.806;2024-01-30T06:49:36;8.70;61.40
4354;DHT22;11018;51.258;6.806;2024-01-30T06:52:05;8.70;62.30
4354;DHT22;11018;51.258;6.806;2024-01-30T06:54:31;8.70;61.90
4354;DHT22;11018;51.258;6.806;2024-01-30T06:56:58;8.80;61.30
4354;DHT22;11018;51.258;6.806;2024-01-30T06:59:27;8.80;61.20
4354;DHT22;11018;51.258;6.806;2024-01-30T07:01:52;8.90;60.10
4354;DHT22;11018;51.258;6.806;2024-01-30T07:04:18;8.90;60.40
4354;DHT22;11018;51.258;6.806;2024-01-30T07:06:43;8.90;59.70
4354;DHT22;11018;51.258;6.806;2024-01-30T07:09:09;9.00;60.10
4354;DHT22;11018;51.258;6.806;2024-01-30T07:11:35;8.90;60.10
4354;DHT22;11018;51.258;6.806;2024-01-30T07:14:00;8.90;60.30
4354;DHT22;11018;51.258;6.806;2024-01-30T07:16:29;8.90;60.40
4354;DHT22;11018;51.258;6.806;2024-01-30T07:18:54;8.90;60.30
4354;DHT22;11018;51.258;6.806;2024-01-30T07:21:20;8.90;60.10
4354;DHT22;11018;51.258;6.806;2024-01-30T07:23:47;8.90;60.00
4354;DHT22;11018;51.258;6.806;2024-01-30T07:26:12;8.90;60.30
4354;DHT22;11018;51.258;6.806;2024-01-30T07:28:38;8.90;59.70
4354;DHT22;11018;51.258;6.806;2024-01-30T07:31:04;8.90;60.40
4354;DHT22;11018;51.258;6.806;2024-01-30T07:33:29;8.90;60.20
4354;DHT22;11018;51.258;6.806;2024-01-30T07:35:55;8.90;60.20
4354;DHT22;11018;51.258;6.806;2024-01-30T07:38:21;9.00;59.20
4354;DHT22;11018;51.258;6.806;2024-01-30T07:40:46;9.10;59.10
4354;DHT22;11018;51.258;6.806;2024-01-30T07:43:12;9.10;59.00
4354;DHT22;11018;51.258;6.806;2024-01-30T07:45:37;9.20;58.40
4354;DHT22;11018;51.258;6.806;2024-01-30T07:48:07;9.20;58.20
4354;DHT22;11018;51.258;6.806;2024-01-30T07:50:32;9.10;58.40
4354;DHT22;11018;51.258;6.806;2024-01-30T07:52:59;9.20;58.00
4354;DHT22;11018;51.258;6.806;2024-01-30T07:55:25;9.20;57.80
4354;DHT22;11018;51.258;6.806;2024-01-30T07:57:54;9.20;57.80
4354;DHT22;11018;51.258;6.806;2024-01-30T08:00:21;9.30;57.40
4354;DHT22;11018;51.258;6.806;2024-01-30T08:02:47;9.30;57.60
4354;DHT22;11018;51.258;6.806;2024-01-30T08:05:13;9.30;57.70
4354;DHT22;11018;51.258;6.806;2024-01-30T08:07:41;9.40;57.00
4354;DHT22;11018;51.258;6.806;2024-01-30T08:12:34;9.40;57.00
4354;DHT22;11018;51.258;6.806;2024-01-30T08:14:59;9.40;57.10
4354;DHT22;11018;51.258;6.806;2024-01-30T08:17:25;9.40;57.30
4354;DHT22;11018;51.258;6.806;2024-01-30T08:19:51;9.50;57.00
4354;DHT22;11018;51.258;6.806;2024-01-30T08:22:16;9.50;56.80
4354;DHT22;11018;51.258;6.806;2024-01-30T08:24:42;9.70;55.50
4354;DHT22;11018;51.258;6.806;2024-01-30T08:27:07;9.60;55.50
4354;DHT22;11018;51.258;6.806;2024-01-30T08:29:37;9.60;55.40
4354;DHT22;11018;51.258;6.806;2024-01-30T08:32:04;9.70;55.50
4354;DHT22;11018;51.258;6.806;2024-01-30T08:34:30;9.80;54.70
4354;DHT22;11018;51.258;6.806;2024-01-30T08:36:56;9.80;54.60
4354;DHT22;11018;51.258;6.806;2024-01-30T08:39:21;9.80;54.50
4354;DHT22;11018;51.258;6.806;2024-01-30T08:41:47;9.80;54.50
4354;DHT22;11018;51.258;6.806;2024-01-30T08:44:12;9.80;54.60
4354;DHT22;11018;51.258;6.806;2024-01-30T08:46:38;9.80;54.30
4354;DHT22;11018;51.258;6.806;2024-01-30T08:49:03;9.90;54.30
4354;DHT22;11018;51.258;6.806;2024-01-30T08:51:30;10.00;53.40
4354;DHT22;11018;51.258;6.806;2024-01-30T08:53:55;10.00;53.50
4354;DHT22;11018;51.258;6.806;2024-01-30T08:56:21;10.10;53.40
4354;DHT22;11018;51.258;6.806;2024-01-30T08:58:47;10.10;52.70
4354;DHT22;11018;51.258;6.806;2024-01-30T09:01:12;10.10;53.00
4354;DHT22;11018;51.258;6.806;2024-01-30T09:03:38;10.00;53.00
4354;DHT22;11018;51.258;6.806;2024-01-30T09:06:12;10.20;52.50
4354;DHT22;11018;51.258;6.806;2024-01-30T09:08:38;10.20;52.20
4354;DHT22;11018;51.258;6.806;2024-01-30T09:11:14;10.20;52.10
4354;DHT22;11018;51.258;6.806;2024-01-30T09:13:40;10.40;51.50
4354;DHT22;11018;51.258;6.806;2024-01-30T09:16:06;10.50;50.60
4354;DHT22;11018;51.258;6.806;2024-01-30T09:18:32;10.40;50.90
4354;DHT22;11018;51.258;6.806;2024-01-30T09:20:57;10.40;50.80
4354;DHT22;11018;51.258;6.806;2024-01-30T09:23:24;10.60;50.50
4354;DHT22;11018;51.258;6.806;2024-01-30T09:25:50;10.60;50.00
4354;DHT22;11018;51.258;6.806;2024-01-30T09:28:16;10.60;49.90
4354;DHT22;11018;51.258;6.806;2024-01-30T09:30:42;10.80;49.40
4354;DHT22;11018;51.258;6.806;2024-01-30T09:33:08;10.80;49.00
4354;DHT22;11018;51.258;6.806;2024-01-30T09:35:33;10.80;49.00
4354;DHT22;11018;51.258;6.806;2024-01-30T09:37:59;10.90;49.10
4354;DHT22;11018;51.258;6.806;2024-01-30T09:40:24;11.00;48.20
4354;DHT22;11018;51.258;6.806;2024-01-30T09:42:51;11.00;48.00
4354;DHT22;11018;51.258;6.806;2024-01-30T09:45:19;11.20;47.30
4354;DHT22;11018;51.258;6.806;2024-01-30T09:47:45;11.40;46.20
4354;DHT22;11018;51.258;6.806;2024-01-30T09:50:12;11.40;46.00
4354;DHT22;11018;51.258;6.806;2024-01-30T09:52:38;11.40;46.20
4354;DHT22;11018;51.258;6.806;2024-01-30T09:55:05;11.40;46.30
4354;DHT22;11018;51.258;6.806;2024-01-30T09:57:31;11.50;45.70
4354;DHT22;11018;51.258;6.806;2024-01-30T09:59:57;11.50;45.90
4354;DHT22;11018;51.258;6.806;2024-01-30T10:02:23;11.50;45.70
4354;DHT22;11018;51.258;6.806;2024-01-30T10:04:49;11.60;45.30
4354;DHT22;11018;51.258;6.806;2024-01-30T10:07:16;11.60;45.20
4354;DHT22;11018;51.258;6.806;2024-01-30T10:09:41;11.60;45.70
4354;DHT22;11018;51.258;6.806;2024-01-30T10:12:11;11.70;44.90
4354;DHT22;11018;51.258;6.806;2024-01-30T10:14:40;11.70;45.00
4354;DHT22;11018;51.258;6.806;2024-01-30T10:17:08;11.80;44.30
4354;DHT22;11018;51.258;6.806;2024-01-30T10:19:34;11.90;43.90
4354;DHT22;11018;51.258;6.806;2024-01-30T10:22:03;11.90;44.10
4354;DHT22;11018;51.258;6.806;2024-01-30T10:24:29;12.00;44.40
4354;DHT22;11018;51.258;6.806;2024-01-30T10:26:55;12.20;43.20
4354;DHT22;11018;51.258;6.806;2024-01-30T10:29:21;12.40;41.70
4354;DHT22;11018;51.258;6.806;2024-01-30T10:31:57;12.60;41.30
4354;DHT22;11018;51.258;6.806;2024-01-30T10:34:23;12.60;40.80
4354;DHT22;11018;51.258;6.806;2024-01-30T10:36:50;12.50;41.40
4354;DHT22;11018;51.258;6.806;2024-01-30T10:39:17;12.50;41.40
4354;DHT22;11018;51.258;6.806;2024-01-30T10:41:43;12.40;41.50
4354;DHT22;11018;51.258;6.806;2024-01-30T10:44:10;12.40;41.80
4354;DHT22;11018;51.258;6.806;2024-01-30T10:46:38;12.30;41.90
4354;DHT22;11018;51.258;6.806;2024-01-30T10:49:04;12.40;42.00
4354;DHT22;11018;51.258;6.806;2024-01-30T10:51:31;12.50;42.00
4354;DHT22;11018;51.258;6.806;2024-01-30T10:53:57;12.50;41.80
4354;DHT22;11018;51.258;6.806;2024-01-30T10:56:24;12.70;41.60
4354;DHT22;11018;51.258;6.806;2024-01-30T10:58:53;12.70;41.00
4354;DHT22;11018;51.258;6.806;2024-01-30T11:01:20;12.90;40.30
4354;DHT22;11018;51.258;6.806;2024-01-30T11:03:49;12.90;40.30
4354;DHT22;11018;51.258;6.806;2024-01-30T11:06:16;12.80;40.60
4354;DHT22;11018;51.258;6.806;2024-01-30T11:08:44;12.80;40.90
4354;DHT22;11018;51.258;6.806;2024-01-30T11:11:10;13.00;40.10
4354;DHT22;11018;51.258;6.806;2024-01-30T11:13:36;13.10;39.70
4354;DHT22;11018;51.258;6.806;2024-01-30T11:16:02;13.20;39.60
4354;DHT22;11018;51.258;6.806;2024-01-30T11:18:32;13.10;39.80
4354;DHT22;11018;51.258;6.806;2024-01-30T11:20:59;13.10;39.80
4354;DHT22;11018;51.258;6.806;2024-01-30T11:23:30;13.20;39.50
4354;DHT22;11018;51.258;6.806;2024-01-30T11:25:58;13.10;39.80
4354;DHT22;11018;51.258;6.806;2024-01-30T11:28:24;13.10;39.60
4354;DHT22;11018;51.258;6.806;2024-01-30T11:30:49;13.10;40.10
4354;DHT22;11018;51.258;6.806;2024-01-30T11:33:30;13.10;39.90
4354;DHT22;11018;51.258;6.806;2024-01-30T11:35:58;13.20;39.50
4354;DHT22;11018;51.258;6.806;2024-01-30T11:38:32;13.10;39.60
4354;DHT22;11018;51.258;6.806;2024-01-30T11:40:58;13.20;39.70
4354;DHT22;11018;51.258;6.806;2024-01-30T11:43:24;13.40;39.10
4354;DHT22;11018;51.258;6.806;2024-01-30T11:45:50;13.20;39.60
4354;DHT22;11018;51.258;6.806;2024-01-30T11:48:16;13.00;39.90
4354;DHT22;11018;51.258;6.806;2024-01-30T11:50:41;12.90;40.70
4354;DHT22;11018;51.258;6.806;2024-01-30T11:53:08;12.80;40.90
4354;DHT22;11018;51.258;6.806;2024-01-30T11:55:33;13.00;40.80
4354;DHT22;11018;51.258;6.806;2024-01-30T11:58:01;12.90;41.00
4354;DHT22;11018;51.258;6.806;2024-01-30T12:00:27;12.90;41.50
4354;DHT22;11018;51.258;6.806;2024-01-30T12:02:54;12.80;41.70
4354;DHT22;11018;51.258;6.806;2024-01-30T12:05:26;12.90;41.80
4354;DHT22;11018;51.258;6.806;2024-01-30T12:07:52;12.80;42.10
4354;DHT22;11018;51.258;6.806;2024-01-30T12:10:17;12.70;42.40
4354;DHT22;11018;51.258;6.806;2024-01-30T12:12:45;12.80;42.30
4354;DHT22;11018;51.258;6.806;2024-01-30T12:15:12;12.80;42.50
4354;DHT22;11018;51.258;6.806;2024-01-30T12:17:38;13.00;42.70
4354;DHT22;11018;51.258;6.806;2024-01-30T12:20:14;13.00;42.40
4354;DHT22;11018;51.258;6.806;2024-01-30T12:22:41;13.10;42.40
4354;DHT22;11018;51.258;6.806;2024-01-30T12:25:11;13.00;42.40
4354;DHT22;11018;51.258;6.806;2024-01-30T12:27:42;13.00;42.70
4354;DHT22;11018;51.258;6.806;2024-01-30T12:30:14;13.10;42.60
4354;DHT22;11018;51.258;6.806;2024-01-30T12:32:45;12.90;43.20
4354;DHT22;11018;51.258;6.806;2024-01-30T12:35:14;12.90;43.50
4354;DHT22;11018;51.258;6.806;2024-01-30T12:37:40;12.90;43.80
4354;DHT22;11018;51.258;6.806;2024-01-30T12:40:07;13.00;43.70
4354;DHT22;11018;51.258;6.806;2024-01-30T12:42:33;13.10;44.20
4354;DHT22;11018;51.258;6.806;2024-01-30T12:44:59;13.00;44.80
4354;DHT22;11018;51.258;6.806;2024-01-30T12:47:25;13.20;45.10
4354;DHT22;11018;51.258;6.806;2024-01-30T12:49:51;13.20;45.90
4354;DHT22;11018;51.258;6.806;2024-01-30T12:52:20;13.30;46.20
4354;DHT22;11018;51.258;6.806;2024-01-30T12:54:47;13.30;47.30
4354;DHT22;11018;51.258;6.806;2024-01-30T12:57:12;13.40;46.80
4354;DHT22;11018;51.258;6.806;2024-01-30T12:59:38;13.30;47.40
4354;DHT22;11018;51.258;6.806;2024-01-30T13:02:04;13.20;48.10
4354;DHT22;11018;51.258;6.806;2024-01-30T13:04:30;13.30;48.10
4354;DHT22;11018;51.258;6.806;2024-01-30T13:06:56;13.20;48.10
4354;DHT22;11018;51.258;6.806;2024-01-30T13:09:24;13.30;48.50
4354;DHT22;11018;51.258;6.806;2024-01-30T13:11:50;13.30;48.20
4354;DHT22;11018;51.258;6.806;2024-01-30T13:14:17;13.30;48.40
4354;DHT22;11018;51.258;6.806;2024-01-30T13:16:43;13.30;48.50
4354;DHT22;11018;51.258;6.806;2024-01-30T13:19:08;13.30;48.80
4354;DHT22;11018;51.258;6.806;2024-01-30T13:21:34;13.20;48.90
4354;DHT22;11018;51.258;6.806;2024-01-30T13:23:59;13.30;49.00
4354;DHT22;11018;51.258;6.806;2024-01-30T13:26:25;13.20;49.10
4354;DHT22;11018;51.258;6.806;2024-01-30T13:28:51;13.20;49.40
4354;DHT22;11018;51.258;6.806;2024-01-30T13:31:17;13.20;49.60
4354;DHT22;11018;51.258;6.806;2024-01-30T13:33:43;13.20;49.10
4354;DHT22;11018;51.258;6.806;2024-01-30T13:36:10;13.20;49.50
4354;DHT22;11018;51.258;6.806;2024-01-30T13:38:36;13.10;49.80
4354;DHT22;11018;51.258;6.806;2024-01-30T13:41:02;13.10;50.10
4354;DHT22;11018;51.258;6.806;2024-01-30T13:43:28;13.10;50.10
4354;DHT22;11018;51.258;6.806;2024-01-30T13:45:54;13.10;50.00
4354;DHT22;11018;51.258;6.806;2024-01-30T13:48:19;13.20;49.60
4354;DHT22;11018;51.258;6.806;2024-01-30T13:50:45;13.30;49.20
4354;DHT22;11018;51.258;6.806;2024-01-30T13:53:11;13.30;49.10
4354;DHT22;11018;51.258;6.806;2024-01-30T13:55:37;13.30;49.30
4354;DHT22;11018;51.258;6.806;2024-01-30T13:58:03;13.50;48.60
4354;DHT22;11018;51.258;6.806;2024-01-30T14:00:29;13.50;48.30
4354;DHT22;11018;51.258;6.806;2024-01-30T14:02:54;13.60;47.80
4354;DHT22;11018;51.258;6.806;2024-01-30T14:05:20;13.70;47.60
4354;DHT22;11018;51.258;6.806;2024-01-30T14:07:47;13.70;47.10
4354;DHT22;11018;51.258;6.806;2024-01-30T14:10:13;13.80;46.90
4354;DHT22;11018;51.258;6.806;2024-01-30T14:12:39;13.90;46.70
4354;DHT22;11018;51.258;6.806;2024-01-30T14:15:06;14.00;46.10
4354;DHT22;11018;51.258;6.806;2024-01-30T14:17:32;14.00;46.00
4354;DHT22;11018;51.258;6.806;2024-01-30T14:19:58;13.90;45.80
4354;DHT22;11018;51.258;6.806;2024-01-30T14:22:23;13.80;46.00
4354;DHT22;11018;51.258;6.806;2024-01-30T14:24:49;13.70;47.00
4354;DHT22;11018;51.258;6.806;2024-01-30T14:27:14;13.90;46.40
4354;DHT22;11018;51.258;6.806;2024-01-30T14:29:40;14.10;45.20
4354;DHT22;11018;51.258;6.806;2024-01-30T14:32:07;14.10;45.10
4354;DHT22;11018;51.258;6.806;2024-01-30T14:34:33;14.10;44.80
4354;DHT22;11018;51.258;6.806;2024-01-30T14:36:58;14.10;44.80
4354;DHT22;11018;51.258;6.806;2024-01-30T14:39:24;14.00;45.30
4354;DHT22;11018;51.258;6.806;2024-01-30T14:41:49;14.00;45.10
4354;DHT22;11018;51.258;6.806;2024-01-30T14:44:15;13.90;45.50
4354;DHT22;11018;51.258;6.806;2024-01-30T14:46:41;13.90;45.50
4354;DHT22;11018;51.258;6.806;2024-01-30T14:49:06;13.90;45.20
4354;DHT22;11018;51.258;6.806;2024-01-30T14:51:33;14.00;45.10
4354;DHT22;11018;51.258;6.806;2024-01-30T14:54:00;14.00;44.40
4354;DHT22;11018;51.258;6.806;2024-01-30T14:56:27;13.90;44.90
4354;DHT22;11018;51.258;6.806;2024-01-30T14:58:53;13.80;45.30
4354;DHT22;11018;51.258;6.806;2024-01-30T15:01:18;13.70;45.40
4354;DHT22;11018;51.258;6.806;2024-01-30T15:03:44;13.60;45.80
4354;DHT22;11018;51.258;6.806;2024-01-30T15:06:12;13.50;46.50
4354;DHT22;11018;51.258;6.806;2024-01-30T15:08:38;13.40;46.80
4354;DHT22;11018;51.258;6.806;2024-01-30T15:11:04;13.30;47.00
4354;DHT22;11018;51.258;6.806;2024-01-30T15:13:30;13.30;46.80
4354;DHT22;11018;51.258;6.806;2024-01-30T15:15:56;13.20;47.10
4354;DHT22;11018;51.258;6.806;2024-01-30T15:18:21;13.20;46.90
4354;DHT22;11018;51.258;6.806;2024-01-30T15:20:47;13.10;45.90
4354;DHT22;11018;51.258;6.806;2024-01-30T15:23:12;13.10;45.40
4354;DHT22;11018;51.258;6.806;2024-01-30T15:25:39;13.10;44.10
4354;DHT22;11018;51.258;6.806;2024-01-30T15:28:05;13.00;43.40
4354;DHT22;11018;51.258;6.806;2024-01-30T15:30:30;13.00;42.50
4354;DHT22;11018;51.258;6.806;2024-01-30T15:32:56;12.90;42.60
4354;DHT22;11018;51.258;6.806;2024-01-30T15:35:22;12.80;43.30
4354;DHT22;11018;51.258;6.806;2024-01-30T15:37:47;12.80;43.20
4354;DHT22;11018;51.258;6.806;2024-01-30T15:40:13;12.70;43.00
4354;DHT22;11018;51.258;6.806;2024-01-30T15:42:38;12.80;42.10
4354;DHT22;11018;51.258;6.806;2024-01-30T15:45:04;12.70;41.10
4354;DHT22;11018;51.258;6.806;2024-01-30T15:47:30;12.50;41.40
4354;DHT22;11018;51.258;6.806;2024-01-30T15:49:57;12.50;41.20